Time;durP1;ratioP1;P1;durP2;ratioP2;P2;SDS_P1;SDS_P2;PMS_P1;PMS_P2;Temp;Humidity;BMP_temperature;BMP_pressure;BME280_temperature;BME280_humidity;BME280_pressure;Samples;Min_cycle;Max_cycle;Signal;HPM_P1;HPM_P2
2022/12/24 00:01:10;;;;;;;31.57;6.83;;;;;;;9.43;100.00;100485.75;4815933;29;20045;-91
2022/12/24 00:03:36;;;;;;;31.40;6.70;;;;;;;9.31;100.00;100492.84;4819519;29;20042;-92
2022/12/24 00:06:16;;;;;;;29.33;7.60;;;;;;;9.27;100.00;100495.13;4818736;29;20025;-91
2022/12/24 00:08:42;;;;;;;28.87;6.90;;;;;;;9.27;100.00;100501.41;4819692;29;20037;-91
2022/12/24 00:11:07;;;;;;;31.43;6.80;;;;;;;9.29;100.00;100498.47;4833754;29;20034;-92
2022/12/24 00:13:33;;;;;;;40.43;8.43;;;;;;;9.32;100.00;100508.03;4813108;29;20067;-91
2022/12/24 00:15:59;;;;;;;31.60;7.60;;;;;;;9.27;100.00;100506.81;4816041;29;20034;-91
2022/12/24 00:18:25;;;;;;;32.10;6.67;;;;;;;9.27;100.00;100509.50;4834044;29;20050;-91
2022/12/24 00:20:52;;;;;;;31.67;6.83;;;;;;;9.24;100.00;100511.78;4821925;29;20037;-92
2022/12/24 00:23:18;;;;;;;35.57;6.80;;;;;;;9.21;100.00;100521.16;4818137;29;20059;-91
2022/12/24 00:25:44;;;;;;;29.17;6.73;;;;;;;9.21;100.00;100523.03;4831641;29;20029;-91
2022/12/24 00:28:10;;;;;;;36.53;6.90;;;;;;;9.20;100.00;100518.66;4821166;29;20030;-91
2022/12/24 00:30:41;;;;;;;34.17;7.60;;;;;;;9.17;100.00;100530.72;4816780;29;20050;-90
2022/12/24 00:33:06;;;;;;;34.00;7.07;;;;;;;9.12;100.00;100531.38;4822244;29;20041;-91
2022/12/24 00:35:37;;;;;;;32.00;6.60;;;;;;;9.10;100.00;100541.53;4824183;29;20053;-91
2022/12/24 00:38:03;;;;;;;39.77;8.70;;;;;;;9.16;100.00;100545.28;4839199;29;20037;-92
2022/12/24 00:40:29;;;;;;;35.00;8.10;;;;;;;9.17;100.00;100536.13;4835308;29;20041;-91
2022/12/24 00:42:55;;;;;;;30.20;7.37;;;;;;;9.17;100.00;100544.25;4840038;29;20113;-91
2022/12/24 00:45:21;;;;;;;31.90;7.80;;;;;;;9.23;100.00;100551.53;4854518;29;20451;-90
2022/12/24 00:47:46;;;;;;;29.87;6.73;;;;;;;9.21;100.00;100548.19;4844017;29;20037;-91
2022/12/24 00:50:11;;;;;;;34.73;7.27;;;;;;;9.20;100.00;100554.63;4843206;29;20029;-91
2022/12/24 00:52:37;;;;;;;33.57;7.97;;;;;;;9.19;100.00;100571.06;4853833;29;20056;-91
2022/12/24 00:55:03;;;;;;;30.03;7.37;;;;;;;9.17;100.00;100559.63;4838517;29;20065;-90
2022/12/24 00:57:28;;;;;;;31.40;7.60;;;;;;;9.16;100.00;100564.19;4842627;29;20295;-90
2022/12/24 00:59:54;;;;;;;33.83;7.77;;;;;;;9.15;100.00;100562.53;4838765;29;20451;-91
2022/12/24 01:02:22;;;;;;;28.73;6.90;;;;;;;9.11;100.00;100588.31;4839101;29;20041;-91
2022/12/24 01:07:34;;;;;;;27.83;7.50;;;;;;;9.16;100.00;100585.81;4849883;29;20439;-90
2022/12/24 01:09:59;;;;;;;26.90;6.47;;;;;;;9.12;100.00;100595.38;4850238;29;20117;-90
2022/12/24 01:12:25;;;;;;;28.90;6.83;;;;;;;9.13;100.00;100583.53;4852145;29;20542;-91
2022/12/24 01:14:50;;;;;;;28.87;7.37;;;;;;;9.07;100.00;100585.22;4832646;29;20120;-90
2022/12/24 01:17:16;;;;;;;31.97;7.33;;;;;;;9.08;100.00;100586.88;4854154;29;20045;-90
2022/12/24 01:19:41;;;;;;;29.13;7.23;;;;;;;9.09;100.00;100595.81;4820836;29;20026;-90
2022/12/24 01:22:07;;;;;;;29.67;6.67;;;;;;;9.08;100.00;100584.19;4837212;29;20036;-91
2022/12/24 01:24:32;;;;;;;27.27;6.87;;;;;;;9.06;100.00;100590.84;4835830;29;20410;-91
2022/12/24 01:26:57;;;;;;;32.53;7.33;;;;;;;9.06;100.00;100591.66;4837808;29;21051;-90
2022/12/24 01:29:23;;;;;;;29.13;7.40;;;;;;;9.08;100.00;100595.00;4849379;29;20030;-90
2022/12/24 01:31:48;;;;;;;31.57;7.67;;;;;;;9.10;100.00;100611.81;4843182;29;20025;-91
2022/12/24 01:34:14;;;;;;;28.47;7.23;;;;;;;9.09;100.00;100603.91;4850335;29;20037;-90
2022/12/24 01:36:39;;;;;;;31.47;7.13;;;;;;;9.06;100.00;100612.44;4821159;29;20049;-91
2022/12/24 01:39:04;;;;;;;30.40;7.10;;;;;;;9.05;100.00;100613.47;4815498;29;20034;-91
2022/12/24 01:44:31;;;;;;;30.73;7.13;;;;;;;8.94;100.00;100626.56;4832737;29;20076;-90
2022/12/24 01:47:02;;;;;;;31.00;7.73;;;;;;;8.90;100.00;100625.31;4819554;29;20074;-90
2022/12/24 01:49:28;;;;;;;29.87;7.67;;;;;;;8.81;100.00;100620.31;4832465;29;20062;-91
2022/12/24 01:52:02;;;;;;;32.83;8.20;;;;;;;8.78;100.00;100624.25;4817971;29;20041;-91
2022/12/24 01:54:42;;;;;;;28.97;7.43;;;;;;;8.77;100.00;100630.69;4819430;29;20030;-92
2022/12/24 01:57:29;;;;;;;30.37;7.67;;;;;;;8.81;100.00;100633.81;4832293;29;20503;-91
2022/12/24 01:59:59;;;;;;;33.17;8.23;;;;;;;8.70;100.00;100630.69;4834121;29;20041;-91
2022/12/24 02:02:26;;;;;;;35.80;9.30;;;;;;;8.68;100.00;100642.75;4822719;29;20037;-91
2022/12/24 02:05:00;;;;;;;34.83;9.10;;;;;;;8.76;100.00;100647.97;4836255;29;20090;-91
2022/12/24 02:07:26;;;;;;;;;;;;;;;8.83;100.00;100654.19;4817848;29;20622;-91
2022/12/24 02:09:56;;;;;;;29.77;8.70;;;;;;;8.76;100.00;100661.47;4835892;29;19913;-91
2022/12/24 02:12:22;;;;;;;36.63;8.80;;;;;;;8.74;100.00;100658.13;4821733;29;20055;-90
2022/12/24 02:14:48;;;;;;;37.20;8.90;;;;;;;8.82;100.00;100651.72;4834932;29;20042;-90
2022/12/24 02:17:24;;;;;;;37.13;9.63;;;;;;;8.79;100.00;100663.75;4832547;29;20034;-90
2022/12/24 02:20:27;;;;;;;34.53;8.93;;;;;;;8.90;100.00;100665.03;4834323;29;20038;-89
2022/12/24 02:23:21;;;;;;;35.33;9.37;;;;;;;8.88;100.00;100665.22;4817028;29;20061;-90
2022/12/24 02:26:05;;;;;;;29.90;8.60;;;;;;;8.98;100.00;100674.81;4817593;29;20025;-90
2022/12/24 02:29:11;;;;;;;35.55;9.05;;;;;;;8.94;100.00;100664.38;4819251;29;20518;-90
2022/12/24 02:31:57;;;;;;;31.23;9.00;;;;;;;8.89;100.00;100666.88;4816475;29;20041;-90
2022/12/24 02:34:28;;;;;;;31.53;9.17;;;;;;;8.95;100.00;100668.75;4819299;29;20044;-90
2022/12/24 02:37:23;;;;;;;30.07;9.17;;;;;;;8.95;100.00;100668.75;4847386;29;20137;-90
2022/12/24 02:39:58;;;;;;;33.08;9.27;;;;;;;8.94;100.00;100671.69;4825207;29;20045;-90
2022/12/24 02:42:31;;;;;;;31.13;8.93;;;;;;;8.97;100.00;100678.53;4841578;29;20029;-90
2022/12/24 02:45:07;;;;;;;34.53;9.53;;;;;;;8.98;100.00;100667.53;4853316;29;20033;-90
2022/12/24 02:47:34;;;;;;;37.40;9.67;;;;;;;9.01;100.00;100674.38;4855431;29;20029;-91
2022/12/24 02:50:04;;;;;;;35.40;9.53;;;;;;;8.99;100.00;100676.44;4855305;29;20538;-91
2022/12/24 02:52:35;;;;;;;32.97;9.30;;;;;;;9.00;100.00;100672.72;4850473;29;20121;-90
2022/12/24 02:55:14;;;;;;;34.50;9.97;;;;;;;8.98;100.00;100672.94;4855276;29;20033;-90
2022/12/24 02:57:44;;;;;;;34.70;9.23;;;;;;;9.03;100.00;100685.81;4841791;29;20093;-91
2022/12/24 03:00:16;;;;;;;34.00;9.87;;;;;;;8.97;100.00;100681.25;4832571;29;20947;-90
2022/12/24 03:03:17;;;;;;;33.97;9.17;;;;;;;9.04;100.00;100690.19;4848464;29;20121;-91
2022/12/24 03:05:46;;;;;;;35.40;8.83;;;;;;;8.99;100.00;100681.84;4851830;29;20034;-90
2022/12/24 03:08:38;;;;;;;38.77;9.47;;;;;;;9.03;100.00;100689.38;4838208;29;20052;-90
2022/12/24 03:11:14;;;;;;;34.60;9.07;;;;;;;9.03;100.00;100686.66;4812338;29;20045;-90
2022/12/24 03:13:41;;;;;;;35.83;9.30;;;;;;;8.98;100.00;100685.63;4830969;29;20542;-90
2022/12/24 03:16:22;;;;;;;36.43;8.90;;;;;;;8.99;100.00;100679.16;4846834;29;20045;-90
2022/12/24 03:18:50;;;;;;;34.50;9.00;;;;;;;8.99;100.00;100684.56;4837707;29;20029;-90
2022/12/24 03:21:23;;;;;;;36.17;8.53;;;;;;;9.01;100.00;100686.03;4850164;29;20128;-91
2022/12/24 03:23:48;;;;;;;34.50;8.73;;;;;;;9.00;100.00;100683.53;4840284;29;20029;-90
2022/12/24 03:26:17;;;;;;;36.60;9.17;;;;;;;9.02;100.00;100686.88;4836721;29;20416;-90
2022/12/24 03:28:43;;;;;;;35.70;9.20;;;;;;;9.04;100.00;100696.41;4847561;29;20094;-90
2022/12/24 03:31:09;;;;;;;35.37;9.50;;;;;;;9.06;100.00;100696.22;4849147;29;20082;-91
2022/12/24 03:33:35;;;;;;;34.80;8.37;;;;;;;9.07;100.00;100693.31;4838944;29;20052;-91
2022/12/24 03:36:01;;;;;;;36.10;8.73;;;;;;;9.09;100.00;100699.34;4855018;29;20053;-89
2022/12/24 03:38:26;;;;;;;35.37;8.70;;;;;;;9.08;100.00;100696.84;4836627;29;20644;-90
2022/12/24 03:40:52;;;;;;;35.13;8.33;;;;;;;9.02;100.00;100701.22;4832611;29;20026;-90
2022/12/24 03:43:17;;;;;;;34.73;8.17;;;;;;;9.01;100.00;100702.25;4837047;29;20097;-91
2022/12/24 03:45:43;;;;;;;32.97;9.03;;;;;;;9.07;100.00;100701.44;4834432;29;20022;-91
2022/12/24 03:48:08;;;;;;;32.03;8.40;;;;;;;9.03;100.00;100697.47;4832857;29;20113;-90
2022/12/24 03:50:33;;;;;;;33.80;9.00;;;;;;;9.02;100.00;100700.38;4828964;29;20523;-90
2022/12/24 03:52:59;;;;;;;31.03;9.53;;;;;;;9.05;100.00;100697.25;4849141;29;20033;-90
2022/12/24 03:55:25;;;;;;;33.67;9.60;;;;;;;9.11;100.00;100707.25;4827022;29;20046;-90
2022/12/24 03:57:50;;;;;;;34.93;9.23;;;;;;;9.16;100.00;100710.16;4848651;29;20044;-91
2022/12/24 04:00:19;;;;;;;34.40;9.80;;;;;;;9.12;100.00;100706.22;4832965;29;20029;-91
2022/12/24 04:02:45;;;;;;;32.53;9.57;;;;;;;9.18;100.00;100718.91;4834084;29;20082;-91
2022/12/24 04:05:14;;;;;;;33.27;9.70;;;;;;;9.19;100.00;100709.75;4851276;29;20380;-90
2022/12/24 04:07:39;;;;;;;34.23;9.77;;;;;;;9.25;100.00;100703.53;4838290;29;20107;-90
2022/12/24 04:10:05;;;;;;;35.23;10.03;;;;;;;9.25;100.00;100708.94;4839260;29;20553;-90
2022/12/24 04:12:30;;;;;;;34.13;9.93;;;;;;;9.33;100.00;100720.56;4853008;29;20033;-90
2022/12/24 04:14:56;;;;;;;36.57;10.17;;;;;;;9.29;100.00;100715.59;4847775;29;20022;-90
2022/12/24 04:17:21;;;;;;;33.93;10.40;;;;;;;9.34;100.00;100722.25;4851056;29;20068;-91
2022/12/24 04:19:46;;;;;;;33.50;10.10;;;;;;;9.31;100.00;100718.09;4847919;29;20037;-91
2022/12/24 04:22:12;;;;;;;30.53;9.60;;;;;;;9.37;100.00;100732.66;4839816;29;20524;-90
2022/12/24 04:24:37;;;;;;;31.83;10.40;;;;;;;9.40;100.00;100733.06;4850132;29;20057;-90
2022/12/24 04:27:02;;;;;;;32.27;9.27;;;;;;;9.38;100.00;100737.03;4849858;29;20033;-90
2022/12/24 04:29:28;;;;;;;30.90;9.67;;;;;;;9.38;100.00;100735.13;4839118;29;20478;-90
2022/12/24 04:31:53;;;;;;;30.90;9.67;;;;;;;9.39;100.00;100728.69;4834919;29;20034;-90
2022/12/24 04:34:19;;;;;;;32.77;9.37;;;;;;;9.40;100.00;100733.06;4829769;29;20053;-91
2022/12/24 04:36:44;;;;;;;29.60;9.30;;;;;;;9.42;100.00;100755.34;4850316;29;20558;-90
2022/12/24 04:39:09;;;;;;;30.90;9.93;;;;;;;9.44;100.00;100752.44;4848755;29;20116;-90
2022/12/24 04:41:35;;;;;;;28.93;8.77;;;;;;;9.41;100.00;100739.31;4849066;29;20034;-90
2022/12/24 04:44:03;;;;;;;31.00;9.70;;;;;;;9.46;100.00;100753.91;4832667;29;20120;-91
2022/12/24 04:46:32;;;;;;;28.13;8.70;;;;;;;9.44;100.00;100742.44;4834435;29;20030;-91
2022/12/24 04:48:58;;;;;;;32.17;9.70;;;;;;;9.46;100.00;100750.34;4835946;29;20040;-90
2022/12/24 04:51:24;;;;;;;28.83;9.87;;;;;;;9.42;100.00;100741.81;4835422;29;20482;-90
2022/12/24 04:53:52;;;;;;;33.33;9.33;;;;;;;9.45;100.00;100762.19;4849842;29;20057;-91
2022/12/24 04:56:21;;;;;;;28.60;7.90;;;;;;;9.45;100.00;100751.38;4834515;29;20125;-91
2022/12/24 04:58:47;;;;;;;32.40;8.80;;;;;;;9.43;100.00;100754.28;4835672;29;20026;-90
2022/12/24 05:01:16;;;;;;;29.10;9.23;;;;;;;9.42;100.00;100752.66;4841212;29;20436;-91
2022/12/24 05:03:42;;;;;;;29.70;8.60;;;;;;;9.35;100.00;100756.38;4845911;29;20121;-90
2022/12/24 05:06:15;;;;;;;29.40;8.63;;;;;;;9.37;100.00;100743.47;4818344;29;20570;-90
2022/12/24 05:08:41;;;;;;;31.47;9.20;;;;;;;9.34;100.00;100750.09;4832342;29;20055;-90
2022/12/24 05:11:06;;;;;;;29.87;9.07;;;;;;;9.36;100.00;100753.44;4835927;29;20034;-90
2022/12/24 05:13:32;;;;;;;32.00;8.63;;;;;;;9.38;100.00;100761.34;4833859;29;20041;-91
2022/12/24 05:15:58;;;;;;;31.33;8.97;;;;;;;9.37;100.00;100755.13;4838702;29;20029;-90
2022/12/24 05:18:24;;;;;;;30.00;8.47;;;;;;;9.35;100.00;100762.59;4831958;29;20040;-90
2022/12/24 05:20:50;;;;;;;30.23;8.77;;;;;;;9.38;100.00;100761.34;4831182;29;20033;-90
2022/12/24 05:26:21;;;;;;;34.07;8.50;;;;;;;9.41;100.00;100760.94;4849159;29;20383;-91
2022/12/24 05:28:51;;;;;;;32.55;8.80;;;;;;;9.37;100.00;100752.41;4855128;29;20045;-91
2022/12/24 05:31:17;;;;;;;31.40;9.10;;;;;;;9.39;100.00;100749.50;4854684;29;20399;-90
2022/12/24 05:33:42;;;;;;;32.13;8.87;;;;;;;9.38;100.00;100754.06;4856114;29;20034;-90
2022/12/24 05:36:08;;;;;;;34.57;8.70;;;;;;;9.37;100.00;100748.88;4855445;29;20402;-91
2022/12/24 05:38:34;;;;;;;33.27;8.00;;;;;;;9.41;100.00;100752.81;4833141;29;20384;-91
2022/12/24 05:40:59;;;;;;;27.87;8.40;;;;;;;9.38;100.00;100755.94;4844029;29;20033;-90
2022/12/24 05:43:25;;;;;;;32.03;7.97;;;;;;;9.40;100.00;100759.28;4842904;29;21853;-90
2022/12/24 05:45:50;;;;;;;32.00;8.97;;;;;;;9.35;100.00;100761.78;4854753;29;20029;-91
2022/12/24 05:48:16;;;;;;;32.73;8.37;;;;;;;9.41;100.00;100760.94;4841341;29;21913;-90
2022/12/24 05:50:41;;;;;;;31.03;7.87;;;;;;;9.32;100.00;100767.59;4839622;29;21792;-90
2022/12/24 05:53:07;;;;;;;33.73;8.00;;;;;;;9.24;100.00;100772.16;4850688;29;20117;-90
2022/12/24 05:55:33;;;;;;;32.53;8.77;;;;;;;9.24;100.00;100774.84;4852955;29;20137;-91
2022/12/24 05:57:59;;;;;;;31.53;8.73;;;;;;;9.25;100.00;100786.50;4839429;29;20170;-90
2022/12/24 06:00:24;;;;;;;33.53;8.53;;;;;;;9.26;100.00;100775.50;4852671;29;20559;-90
2022/12/24 06:02:50;;;;;;;32.10;8.97;;;;;;;9.31;100.00;100793.78;4836134;29;20101;-90
2022/12/24 06:05:16;;;;;;;31.97;8.67;;;;;;;9.27;100.00;100798.78;4835659;29;20037;-90
2022/12/24 06:07:41;;;;;;;30.97;8.80;;;;;;;9.27;100.00;100792.53;4838590;29;20025;-90
2022/12/24 06:10:08;;;;;;;32.73;8.97;;;;;;;9.34;100.00;100797.97;4829858;29;20026;-91
2022/12/24 06:12:33;;;;;;;34.50;8.77;;;;;;;9.31;100.00;100811.91;4852699;29;20651;-91
2022/12/24 06:14:59;;;;;;;30.60;9.43;;;;;;;9.26;100.00;100802.53;4850706;29;20057;-91
2022/12/24 06:17:24;;;;;;;31.67;9.37;;;;;;;9.20;100.00;100797.09;4839065;29;20463;-91
2022/12/24 06:19:49;;;;;;;31.03;8.33;;;;;;;9.22;100.00;100800.41;4837758;29;20029;-90
2022/12/24 06:22:15;;;;;;;29.87;8.57;;;;;;;9.23;100.00;100805.66;4836022;29;20067;-90
2022/12/24 06:24:40;;;;;;;26.70;8.57;;;;;;;9.26;100.00;100807.94;4837034;29;20037;-90
2022/12/24 06:27:06;;;;;;;29.63;8.53;;;;;;;9.28;100.00;100810.44;4836192;29;20550;-90
2022/12/24 06:29:32;;;;;;;29.93;9.10;;;;;;;9.23;100.00;100800.25;4836598;29;20509;-90
2022/12/24 06:31:58;;;;;;;32.83;9.00;;;;;;;9.22;100.00;100798.56;4855906;29;20060;-90
2022/12/24 06:34:23;;;;;;;29.97;9.00;;;;;;;9.27;100.00;100812.31;4851968;29;20057;-90
2022/12/24 06:36:49;;;;;;;30.27;8.33;;;;;;;9.28;100.00;100807.72;4851922;29;20054;-91
2022/12/24 06:39:14;;;;;;;31.63;8.63;;;;;;;9.25;100.00;100817.06;4834756;29;20079;-90
2022/12/24 06:41:39;;;;;;;28.63;8.00;;;;;;;9.32;100.00;100821.69;4835011;29;20566;-91
2022/12/24 06:44:05;;;;;;;29.63;8.40;;;;;;;9.30;100.00;100829.97;4851249;29;20030;-90
2022/12/24 06:46:30;;;;;;;29.73;8.90;;;;;;;9.33;100.00;100831.44;4852470;29;20063;-90
2022/12/24 06:48:56;;;;;;;31.50;9.57;;;;;;;9.34;100.00;100833.09;4839178;29;20029;-90
2022/12/24 06:51:21;;;;;;;32.20;9.17;;;;;;;9.32;100.00;100829.78;4836008;29;20124;-91
2022/12/24 06:53:49;;;;;;;33.73;10.10;;;;;;;9.32;100.00;100840.59;4852280;29;20038;-90
2022/12/24 06:56:15;;;;;;;36.50;10.57;;;;;;;9.31;100.00;100836.22;4837948;29;20085;-90
2022/12/24 06:58:40;;;;;;;31.80;9.90;;;;;;;9.29;100.00;100834.56;4855721;29;20482;-90
2022/12/24 07:01:08;;;;;;;28.43;8.37;;;;;;;9.27;100.00;100831.25;4832521;29;20030;-91
2022/12/24 07:03:34;;;;;;;33.13;9.33;;;;;;;9.27;100.00;100828.53;4840996;29;20120;-90
2022/12/24 07:05:59;;;;;;;27.10;8.10;;;;;;;9.25;100.00;100832.47;4830705;29;20117;-90
2022/12/24 07:08:26;;;;;;;31.67;9.53;;;;;;;9.18;100.00;100840.56;4831084;29;20070;-91
2022/12/24 07:10:51;;;;;;;31.13;8.20;;;;;;;9.23;100.00;100846.19;4836208;29;20869;-90
2022/12/24 07:13:17;;;;;;;31.53;9.23;;;;;;;9.12;100.00;100846.75;4831413;29;20026;-91
2022/12/24 07:15:43;;;;;;;33.10;9.97;;;;;;;9.15;100.00;100849.06;4853422;29;20026;-90
2022/12/24 07:18:09;;;;;;;32.67;9.33;;;;;;;9.09;100.00;100855.28;4853177;29;20064;-90
2022/12/24 07:20:34;;;;;;;38.43;10.47;;;;;;;9.16;100.00;100855.31;4834947;29;20029;-90
2022/12/24 07:23:01;;;;;;;28.63;8.87;;;;;;;9.15;100.00;100853.63;4854338;29;20026;-90
2022/12/24 07:25:26;;;;;;;30.43;8.53;;;;;;;9.08;100.00;100854.47;4835180;29;20301;-90
2022/12/24 07:27:52;;;;;;;28.37;8.57;;;;;;;9.03;100.00;100866.88;4836338;29;20097;-91
2022/12/24 07:30:17;;;;;;;33.63;8.53;;;;;;;9.02;100.00;100867.94;4831255;29;20052;-90
2022/12/24 07:32:43;;;;;;;33.70;9.27;;;;;;;8.97;100.00;100873.94;4834024;29;20033;-90
2022/12/24 07:35:08;;;;;;;33.03;9.30;;;;;;;9.00;100.00;100870.81;4830960;29;20061;-85
2022/12/24 07:37:34;;;;;;;31.73;8.90;;;;;;;8.99;100.00;100880.00;4832140;29;20045;-85
2022/12/24 07:39:59;;;;;;;34.33;8.87;;;;;;;8.90;100.00;100890.09;4838876;29;20053;-85
2022/12/24 07:42:25;;;;;;;33.57;9.03;;;;;;;8.86;100.00;100885.31;4834799;29;20085;-85
2022/12/24 07:44:51;;;;;;;34.40;9.00;;;;;;;8.82;100.00;100895.69;4835501;29;20117;-85
2022/12/24 07:47:16;;;;;;;33.63;8.33;;;;;;;8.83;100.00;100900.06;4851319;29;20391;-85
2022/12/24 07:49:41;;;;;;;32.93;8.80;;;;;;;8.84;100.00;100901.72;4850726;29;20089;-85
2022/12/24 07:52:07;;;;;;;33.10;7.73;;;;;;;8.83;100.00;100897.34;4834721;29;20158;-89
2022/12/24 07:54:32;;;;;;;32.63;8.23;;;;;;;8.76;100.00;100910.81;4833692;29;20034;-90
2022/12/24 07:56:57;;;;;;;32.77;8.27;;;;;;;8.67;100.00;100914.69;4815793;29;20453;-90
2022/12/24 07:59:23;;;;;;;37.03;8.47;;;;;;;8.69;100.00;100919.91;4807673;29;20057;-85
2022/12/24 08:01:48;;;;;;;36.43;9.63;;;;;;;8.71;100.00;100926.78;4836662;29;20511;-85
2022/12/24 08:04:14;;;;;;;33.33;8.03;;;;;;;8.73;100.00;100940.94;4849014;29;20294;-85
2022/12/24 08:06:39;;;;;;;36.43;9.13;;;;;;;8.72;100.00;100943.84;4851375;29;20021;-85
2022/12/24 08:09:05;;;;;;;32.60;8.37;;;;;;;8.73;100.00;100945.50;4829381;29;20090;-89
2022/12/24 08:11:30;;;;;;;33.33;8.17;;;;;;;8.70;100.00;100949.41;4854519;29;20045;-89
2022/12/24 08:13:56;;;;;;;36.07;9.73;;;;;;;8.72;100.00;100952.78;4848857;29;20037;-89
2022/12/24 08:16:21;;;;;;;37.93;9.43;;;;;;;8.74;100.00;100956.13;4820066;29;20034;-89
2022/12/24 08:18:47;;;;;;;34.97;9.13;;;;;;;8.72;100.00;100957.34;4833803;29;20506;-89
2022/12/24 08:21:12;;;;;;;33.77;9.27;;;;;;;8.74;100.00;100966.06;4855858;29;20474;-89
2022/12/24 08:23:38;;;;;;;35.73;9.40;;;;;;;8.73;100.00;100969.81;4831682;29;20125;-89
2022/12/24 08:26:07;;;;;;;34.43;8.73;;;;;;;8.78;100.00;100980.84;4836983;29;20372;-90
2022/12/24 08:28:33;;;;;;;36.77;8.50;;;;;;;8.78;100.00;100981.72;4832029;29;20018;-89
2022/12/24 08:30:58;;;;;;;35.20;8.33;;;;;;;8.80;100.00;100976.09;4852030;29;20482;-89
2022/12/24 08:33:24;;;;;;;34.17;8.80;;;;;;;8.87;100.00;100974.28;4810009;29;20040;-89
2022/12/24 08:35:51;;;;;;;32.63;9.03;;;;;;;8.87;100.00;100976.16;4847488;29;20033;-89
2022/12/24 08:38:16;;;;;;;31.93;8.93;;;;;;;8.82;100.00;100987.53;4846999;29;20045;-89
2022/12/24 08:40:43;;;;;;;35.03;9.43;;;;;;;8.85;100.00;100981.72;4848869;29;20507;-89
2022/12/24 08:43:08;;;;;;;35.37;8.60;;;;;;;8.88;100.00;100975.97;4852342;29;20066;-89
2022/12/24 08:45:37;;;;;;;36.77;9.77;;;;;;;8.88;100.00;100983.22;4856324;29;20049;-89
2022/12/24 08:48:02;;;;;;;33.43;8.93;;;;;;;8.89;100.00;100980.31;4854570;29;20981;-89
2022/12/24 08:50:27;;;;;;;32.77;9.20;;;;;;;8.89;100.00;100999.22;4822485;29;20069;-89
2022/12/24 08:52:53;;;;;;;31.10;8.00;;;;;;;8.89;100.00;101004.63;4825959;29;20046;-89
2022/12/24 08:55:18;;;;;;;32.47;7.90;;;;;;;8.91;100.00;101010.69;4812242;29;20042;-89
2022/12/24 08:57:44;;;;;;;33.70;8.67;;;;;;;8.93;100.00;101007.78;4832456;29;20121;-89
2022/12/24 09:00:11;;;;;;;33.10;8.40;;;;;;;8.97;100.00;101008.22;4852214;29;20060;-89
2022/12/24 09:02:36;;;;;;;31.40;7.80;;;;;;;8.98;100.00;101015.31;4838346;29;20044;-89
2022/12/24 09:05:02;;;;;;;32.60;8.63;;;;;;;9.02;100.00;101019.28;4855201;29;20450;-89
2022/12/24 09:07:28;;;;;;;33.83;8.70;;;;;;;9.12;100.00;101011.66;4842127;29;20071;-89
2022/12/24 09:09:53;;;;;;;29.20;7.97;;;;;;;9.16;100.00;101012.91;4841151;29;20030;-89
2022/12/24 09:12:19;;;;;;;32.90;8.63;;;;;;;9.20;100.00;101025.00;4828345;29;20044;-89
2022/12/24 09:14:44;;;;;;;32.07;8.80;;;;;;;9.20;100.00;101030.41;4857141;29;20030;-89
2022/12/24 09:17:09;;;;;;;31.47;9.53;;;;;;;9.32;100.00;101033.41;4836439;29;20030;-85
2022/12/24 09:19:35;;;;;;;35.20;10.17;;;;;;;9.44;100.00;101037.22;4855988;29;20526;-84
2022/12/24 09:22:00;;;;;;;28.00;8.57;;;;;;;9.57;100.00;101041.88;4840839;29;20030;-84
2022/12/24 09:24:26;;;;;;;37.30;9.60;;;;;;;9.62;100.00;101042.09;4836593;29;20449;-88
2022/12/24 09:26:51;;;;;;;34.33;9.00;;;;;;;9.67;100.00;101038.81;4840545;29;20046;-89
2022/12/24 09:29:17;;;;;;;30.60;8.27;;;;;;;9.66;100.00;101058.78;4825914;29;20034;-89
2022/12/24 09:31:42;;;;;;;32.30;8.83;;;;;;;9.72;100.00;101065.25;4848585;29;20030;-89
2022/12/24 09:34:08;;;;;;;33.17;9.40;;;;;;;9.63;100.00;101061.88;4842078;29;20040;-89
2022/12/24 09:36:34;;;;;;;33.53;8.53;;;;;;;9.62;100.00;101068.31;4839276;29;20050;-89
2022/12/24 09:38:59;;;;;;;33.43;8.47;;;;;;;9.60;100.00;101068.53;4853567;29;20063;-89
2022/12/24 09:41:27;;;;;;;31.97;8.80;;;;;;;9.60;100.00;101068.53;4823652;29;20044;-89
2022/12/24 09:44:00;;;;;;;31.57;8.93;;;;;;;9.59;100.00;101080.38;4852307;29;20398;-89
2022/12/24 09:46:33;;;;;;;33.00;8.97;;;;;;;9.57;100.00;101078.91;4848589;29;20029;-89
2022/12/24 09:49:05;;;;;;;36.73;9.33;;;;;;;9.56;100.00;101090.75;4853382;29;20445;-89
2022/12/24 09:51:39;;;;;;;32.13;8.77;;;;;;;9.56;100.00;101083.50;4852962;29;20036;-89
2022/12/24 09:54:16;;;;;;;35.13;10.20;;;;;;;9.64;100.00;101096.00;4849849;29;20561;-89
2022/12/24 09:56:47;;;;;;;31.37;9.40;;;;;;;9.65;100.00;101088.72;4851689;29;20097;-89
2022/12/24 09:59:20;;;;;;;29.87;9.13;;;;;;;9.71;100.00;101094.19;4826970;29;20033;-89
2022/12/24 10:01:46;;;;;;;34.17;9.20;;;;;;;9.77;100.00;101096.06;4850163;29;20510;-86
2022/12/24 10:04:18;;;;;;;32.57;8.93;;;;;;;9.75;100.00;101103.56;4839330;29;20090;-85
2022/12/24 10:06:43;;;;;;;35.40;9.87;;;;;;;9.96;100.00;101108.03;4839734;29;20033;-85
2022/12/24 10:09:17;;;;;;;35.03;9.57;;;;;;;10.10;100.00;101108.09;4853192;29;20048;-85
2022/12/24 10:12:13;;;;;;;33.03;8.65;;;;;;;10.30;100.00;101100.88;4853151;29;20041;-85
2022/12/24 10:14:50;;;;;;;32.20;8.63;;;;;;;10.33;100.00;101112.34;4853886;29;20040;-85
2022/12/24 10:17:49;;;;;;;35.17;8.97;;;;;;;10.33;100.00;101105.03;4853291;29;20037;-85
2022/12/24 10:20:33;;;;;;;29.07;8.73;;;;;;;10.52;100.00;101103.47;4840227;29;20085;-85
2022/12/24 10:23:10;;;;;;;31.85;9.55;;;;;;;10.67;100.00;101105.16;4840427;29;20058;-85
2022/12/24 10:26:10;;;;;;;28.67;7.53;;;;;;;10.85;100.00;101102.66;4837055;29;20026;-85
2022/12/24 10:28:57;;;;;;;32.03;8.40;;;;;;;11.08;100.00;101096.00;4851037;29;20053;-85
2022/12/24 10:31:27;;;;;;;32.00;8.80;;;;;;;11.18;100.00;101096.44;4853962;29;20128;-85
2022/12/24 10:34:11;;;;;;;28.17;7.63;;;;;;;11.46;100.00;101093.47;4832496;29;20410;-84
2022/12/24 10:36:36;;;;;;;29.37;7.60;;;;;;;11.38;100.00;101096.41;4834247;29;20162;-84
2022/12/24 10:39:01;;;;;;;28.47;7.47;;;;;;;11.23;100.00;101093.94;4831845;29;20498;-89
2022/12/24 10:41:28;;;;;;;30.00;7.70;;;;;;;11.04;100.00;101095.59;4840547;29;20085;-89
2022/12/24 10:43:54;;;;;;;30.57;8.23;;;;;;;10.89;100.00;101108.53;4833557;29;20049;-90
2022/12/24 10:46:31;;;;;;;32.83;8.90;;;;;;;10.76;100.00;101107.47;4854189;29;20037;-89
2022/12/24 10:49:04;;;;;;;32.87;8.07;;;;;;;10.62;100.00;101103.91;4853298;29;20067;-88
2022/12/24 10:51:44;;;;;;;26.37;7.63;;;;;;;10.57;100.00;101116.41;4853602;29;21982;-88
2022/12/24 10:54:18;;;;;;;28.63;8.70;;;;;;;10.53;100.00;101115.16;4838112;29;20101;-91
2022/12/24 10:56:55;;;;;;;29.27;8.63;;;;;;;10.49;100.00;101109.28;4855883;29;20025;-89
2022/12/24 10:59:41;;;;;;;30.80;8.40;;;;;;;10.46;100.00;101107.81;4853114;29;20082;-89
2022/12/24 11:02:36;;;;;;;29.27;8.47;;;;;;;10.44;100.00;101112.63;4847726;29;20044;-89
2022/12/24 11:05:05;;;;;;;29.65;8.95;;;;;;;10.35;100.00;101121.97;4849811;29;20037;-89
2022/12/24 11:07:32;;;;;;;34.07;9.10;;;;;;;10.36;100.00;101110.06;4853172;29;20037;-88
2022/12/24 11:10:05;;;;;;;31.10;9.30;;;;;;;10.35;100.00;101119.25;4820987;29;20029;-89
2022/12/24 11:12:34;;;;;;;33.53;9.10;;;;;;;10.36;100.00;101117.38;4834971;29;20033;-89
2022/12/24 11:15:13;;;;;;;29.63;8.60;;;;;;;10.34;100.00;101120.25;4836992;29;20044;-89
2022/12/24 11:17:39;;;;;;;32.20;9.33;;;;;;;10.31;100.00;101121.50;4852019;29;20051;-89
2022/12/24 11:20:06;;;;;;;28.33;8.50;;;;;;;10.31;100.00;101113.38;4818439;29;20033;-90
2022/12/24 11:22:32;;;;;;;33.53;8.63;;;;;;;10.29;100.00;101123.59;4826045;29;20056;-90
2022/12/24 11:25:03;;;;;;;32.77;9.80;;;;;;;10.25;100.00;101129.59;4842049;29;20116;-89
2022/12/24 11:27:30;;;;;;;29.63;8.43;;;;;;;10.24;100.00;101117.09;4832700;29;20097;-89
2022/12/24 11:30:15;;;;;;;31.43;8.73;;;;;;;10.33;100.00;101134.00;4848519;29;20033;-90
2022/12/24 11:32:46;;;;;;;34.20;8.67;;;;;;;10.23;100.00;101135.22;4835895;29;20120;-87